createdAt,value
2023-03-06T00:00:37.232Z,97280.72
2023-03-06T00:03:03.932Z,97276.69
2023-03-06T00:05:30.513Z,97273.69
2023-03-06T00:07:56.972Z,97278.97
2023-03-06T00:10:24.936Z,97269.44
2023-03-06T00:12:52.686Z,97269.44
2023-03-06T00:15:19.310Z,97269.59
2023-03-06T00:17:45.785Z,97263.78
2023-03-06T00:20:12.783Z,97263.56
2023-03-06T00:22:39.410Z,97260.53
2023-03-06T00:25:06.633Z,97265.44
2023-03-06T00:27:33.160Z,97258.38
2023-03-06T00:30:00.120Z,97259.56
2023-03-06T00:32:26.860Z,97257.47
2023-03-06T00:34:53.555Z,97260.91
2023-03-06T00:37:20.960Z,97255.78
2023-03-06T00:39:47.678Z,97250.91
2023-03-06T00:42:14.128Z,97243.41
2023-03-06T00:44:40.583Z,97237.06
2023-03-06T00:47:07.066Z,97236.44
2023-03-06T00:49:33.991Z,97242.03
2023-03-06T00:52:00.479Z,97237.97
2023-03-06T00:54:26.946Z,97240.22
2023-03-06T00:56:53.409Z,97235.75
2023-03-06T00:59:19.940Z,97241.25
2023-03-06T01:01:46.458Z,97234.81
2023-03-06T01:04:12.965Z,97237.06
2023-03-06T01:06:39.426Z,97235.72
2023-03-06T01:09:05.945Z,97234.75
2023-03-06T01:11:32.405Z,97231.97
2023-03-06T01:13:58.861Z,97229.56
2023-03-06T01:16:25.365Z,97228.09
2023-03-06T01:18:52.088Z,97220.06
2023-03-06T01:21:18.616Z,97218.22
2023-03-06T01:23:45.071Z,97218.03
2023-03-06T01:26:11.820Z,97211.75
2023-03-06T01:28:39.133Z,97204.19
2023-03-06T01:31:05.773Z,97204.88
2023-03-06T01:33:32.263Z,97214.16
2023-03-06T01:35:58.736Z,97211.56
2023-03-06T01:38:25.275Z,97208.53
2023-03-06T01:40:51.841Z,97207.59
2023-03-06T01:43:24.217Z,97209.03
2023-03-06T01:45:50.568Z,97200.50
2023-03-06T01:48:18.246Z,97207.41
2023-03-06T01:50:45.024Z,97198.78
2023-03-06T01:53:11.477Z,97198.13
2023-03-06T01:55:37.933Z,97198.72
2023-03-06T01:58:08.895Z,97200.50
2023-03-06T02:00:35.406Z,97191.53
2023-03-06T02:03:07.248Z,97185.31
2023-03-06T02:05:33.885Z,97183.22
2023-03-06T02:08:00.349Z,97189.28
2023-03-06T02:10:26.813Z,97174.19
2023-03-06T02:12:53.284Z,97175.63
2023-03-06T02:15:22.869Z,97174.19
2023-03-06T02:17:52.049Z,97163.41
2023-03-06T02:20:43.544Z,97160.44
2023-03-06T02:23:13.023Z,97158.97
2023-03-06T02:25:44.898Z,97149.31
2023-03-06T02:28:13.854Z,97158.31
2023-03-06T02:30:40.651Z,97146.72
2023-03-06T02:33:07.246Z,97150.91
2023-03-06T02:35:35.177Z,97145.59
2023-03-06T02:38:13.667Z,97148.94
2023-03-06T02:40:42.007Z,97143.81
2023-03-06T02:43:08.473Z,97137.25
2023-03-06T02:45:39.770Z,97138.09
2023-03-06T02:48:06.659Z,97136.50
2023-03-06T02:50:33.150Z,97140.00
2023-03-06T02:52:59.697Z,97138.41
2023-03-06T02:55:26.202Z,97131.34
2023-03-06T02:57:52.758Z,97126.03
2023-03-06T03:00:19.856Z,97131.50
2023-03-06T03:02:46.327Z,97126.81
2023-03-06T03:05:12.805Z,97130.53
2023-03-06T03:07:39.276Z,97118.00
2023-03-06T03:10:06.212Z,97122.66
2023-03-06T03:12:32.943Z,97118.31
2023-03-06T03:14:59.413Z,97122.16
2023-03-06T03:17:26.205Z,97112.03
2023-03-06T03:19:52.695Z,97117.19
2023-03-06T03:22:19.232Z,97115.09
2023-03-06T03:24:46.210Z,97113.16
2023-03-06T03:27:13.059Z,97111.09
2023-03-06T03:29:39.531Z,97108.19
2023-03-06T03:32:06.717Z,97104.19
2023-03-06T03:34:33.212Z,97097.94
2023-03-06T03:36:59.709Z,97097.94
2023-03-06T03:39:26.170Z,97089.72
2023-03-06T03:41:52.920Z,97081.84
2023-03-06T03:44:19.378Z,97082.47
2023-03-06T03:46:45.899Z,97070.91
2023-03-06T03:49:12.370Z,97069.47
2023-03-06T03:51:38.932Z,97074.16
2023-03-06T03:54:06.720Z,97064.50
2023-03-06T03:56:33.711Z,97070.59
2023-03-06T03:59:00.263Z,97069.47
2023-03-06T04:01:26.769Z,97066.59
2023-03-06T04:03:53.253Z,97056.94
2023-03-06T04:06:19.861Z,97058.22
2023-03-06T04:08:46.337Z,97048.91
2023-03-06T04:11:12.809Z,97052.44
2023-03-06T04:13:39.261Z,97051.00
2023-03-06T04:16:05.922Z,97046.97
2023-03-06T04:18:32.435Z,97047.16
2023-03-06T04:20:58.896Z,97047.13
2023-03-06T04:23:27.758Z,97045.53
2023-03-06T04:25:54.300Z,97035.09
2023-03-06T04:28:20.981Z,97036.84
2023-03-06T04:30:47.467Z,97030.28
2023-03-06T04:33:13.969Z,97025.28
2023-03-06T04:35:40.448Z,97019.16
2023-03-06T04:38:06.974Z,97023.34
2023-03-06T04:40:34.330Z,97027.38
2023-03-06T04:43:01.029Z,97026.09
2023-03-06T04:45:27.909Z,97025.13
2023-03-06T04:47:54.593Z,97026.75
2023-03-06T04:50:21.515Z,97030.75
2023-03-06T04:52:48.051Z,97023.34
2023-03-06T04:55:15.281Z,97028.03
2023-03-06T04:57:42.510Z,97018.38
2023-03-06T05:00:16.734Z,97015.00
2023-03-06T05:02:43.627Z,97013.22
2023-03-06T05:05:10.456Z,97012.41
2023-03-06T05:07:36.947Z,97015.00
2023-03-06T05:10:03.936Z,97022.53
2023-03-06T05:12:30.705Z,97014.38
2023-03-06T05:14:58.044Z,97014.19
2023-03-06T05:17:24.520Z,97001.50
2023-03-06T05:19:51.017Z,97014.00
2023-03-06T05:22:17.489Z,97004.72
2023-03-06T05:24:43.962Z,97013.06
2023-03-06T05:27:10.774Z,97013.41
2023-03-06T05:29:37.250Z,97015.13
2023-03-06T05:32:03.859Z,97012.75
2023-03-06T05:34:30.437Z,97008.72
2023-03-06T05:36:56.913Z,97009.53
2023-03-06T05:39:23.370Z,97006.16
2023-03-06T05:41:49.841Z,97011.78
2023-03-06T05:44:16.309Z,97001.97
2023-03-06T05:46:42.770Z,96997.16
2023-03-06T05:49:09.380Z,96996.84
2023-03-06T05:51:35.837Z,96994.44
2023-03-06T05:54:02.342Z,96994.28
2023-03-06T05:56:28.798Z,96989.28
2023-03-06T05:58:55.255Z,96987.38
2023-03-06T06:01:21.770Z,96983.50
2023-03-06T06:03:48.327Z,96986.38
2023-03-06T06:06:15.281Z,96974.19
2023-03-06T06:08:42.223Z,96987.38
2023-03-06T06:11:09.778Z,96976.13
2023-03-06T06:13:36.971Z,96980.59
2023-03-06T06:16:11.826Z,96978.50
2023-03-06T06:18:41.039Z,96976.25
2023-03-06T06:21:08.113Z,96974.03
2023-03-06T06:23:34.644Z,96974.63
2023-03-06T06:26:04.676Z,96973.22
2023-03-06T06:28:31.198Z,96974.03
2023-03-06T06:30:57.904Z,96980.28
2023-03-06T06:33:24.497Z,96978.19
2023-03-06T06:35:51.251Z,96978.50
2023-03-06T06:38:17.780Z,96972.09
2023-03-06T06:40:46.966Z,96971.94
2023-03-06T06:43:24.853Z,96977.06
2023-03-06T06:45:52.085Z,96968.56
2023-03-06T06:48:18.666Z,96962.78
2023-03-06T06:50:45.193Z,96964.03
2023-03-06T06:53:11.665Z,96964.03
2023-03-06T06:55:38.855Z,96974.81
2023-03-06T06:58:05.389Z,96964.69
2023-03-06T07:00:31.881Z,96972.22
2023-03-06T07:02:58.352Z,96973.97
2023-03-06T07:05:24.835Z,96966.94
2023-03-06T07:07:51.464Z,96961.75
2023-03-06T07:10:19.949Z,96967.53
2023-03-06T07:12:47.172Z,96969.31
2023-03-06T07:15:14.779Z,96964.78
2023-03-06T07:17:41.249Z,96956.91
2023-03-06T07:20:08.825Z,96960.50
2023-03-06T07:22:49.936Z,96965.75
2023-03-06T07:25:17.775Z,96959.81
2023-03-06T07:27:48.799Z,96952.63
2023-03-06T07:30:19.176Z,96951.94
2023-03-06T07:32:45.642Z,96951.44
2023-03-06T07:35:20.014Z,96955.00
2023-03-06T07:37:47.072Z,96944.00
2023-03-06T07:40:13.566Z,96936.00
2023-03-06T07:42:40.073Z,96956.44
2023-03-06T07:45:08.642Z,96952.72
2023-03-06T07:47:35.133Z,96939.53
2023-03-06T07:50:04.312Z,96938.41
2023-03-06T07:52:30.812Z,96939.53
2023-03-06T07:54:57.273Z,96942.28
2023-03-06T07:57:23.762Z,96940.34
2023-03-06T07:59:50.221Z,96933.75
2023-03-06T08:02:20.400Z,96939.97
2023-03-06T08:04:52.459Z,96939.97
2023-03-06T08:07:18.956Z,96939.97
2023-03-06T08:09:45.417Z,96929.19
2023-03-06T08:12:11.881Z,96933.72
2023-03-06T08:14:38.596Z,96938.69
2023-03-06T08:17:05.388Z,96944.00
2023-03-06T08:19:31.838Z,96957.03
2023-03-06T08:21:58.342Z,96948.16
2023-03-06T08:24:24.818Z,96957.19
2023-03-06T08:26:51.337Z,96953.84
2023-03-06T08:29:17.820Z,96956.06
2023-03-06T08:31:45.661Z,96958.19
2023-03-06T08:34:20.747Z,96959.81
2023-03-06T08:36:47.241Z,96960.28
2023-03-06T08:39:14.155Z,96967.69
2023-03-06T08:41:40.733Z,96966.25
2023-03-06T08:44:07.226Z,96969.44
2023-03-06T08:46:34.013Z,96967.19
2023-03-06T08:49:00.561Z,96969.56
2023-03-06T08:51:28.789Z,96966.22
2023-03-06T08:53:55.817Z,96971.34
2023-03-06T08:56:23.267Z,96971.97
2023-03-06T08:58:49.812Z,96962.78
2023-03-06T09:01:21.079Z,96966.50
2023-03-06T09:03:47.916Z,96975.34
2023-03-06T09:06:14.387Z,96958.50
2023-03-06T09:08:44.539Z,96964.16
2023-03-06T09:11:11.442Z,96968.94
2023-03-06T09:13:37.944Z,96969.78
2023-03-06T09:16:04.595Z,96966.56
2023-03-06T09:18:31.067Z,96964.16
2023-03-06T09:20:57.594Z,96973.00
2023-03-06T09:23:24.104Z,96962.72
2023-03-06T09:25:57.388Z,96967.03
2023-03-06T09:28:24.017Z,96967.53
2023-03-06T09:30:50.690Z,96973.97
2023-03-06T09:33:17.217Z,96969.78
2023-03-06T09:35:54.496Z,96976.53
2023-03-06T09:38:24.325Z,96977.00
2023-03-06T09:41:04.285Z,96978.94
2023-03-06T09:43:47.367Z,96983.78
2023-03-06T09:46:31.251Z,96980.06
2023-03-06T09:49:35.354Z,96983.97
2023-03-06T09:52:20.060Z,96987.03
2023-03-06T09:54:48.125Z,96982.84
2023-03-06T09:57:25.940Z,96984.94
2023-03-06T09:59:54.763Z,96988.44
2023-03-06T10:02:33.843Z,96982.34
2023-03-06T10:05:04.171Z,96992.81
2023-03-06T10:07:43.141Z,96995.53
2023-03-06T10:10:19.200Z,96992.28
2023-03-06T10:12:58.737Z,96990.69
2023-03-06T10:15:33.564Z,96985.69
2023-03-06T10:18:00.092Z,96989.22
2023-03-06T10:20:48.944Z,96980.75
2023-03-06T10:23:34.186Z,96982.19
2023-03-06T10:26:10.875Z,96981.03
2023-03-06T10:28:48.059Z,96983.44
2023-03-06T10:31:25.403Z,96982.34
2023-03-06T10:33:56.406Z,96974.91
2023-03-06T10:36:27.172Z,96985.84
2023-03-06T10:38:57.046Z,96983.78
2023-03-06T10:41:31.145Z,96983.75
2023-03-06T10:44:00.583Z,96992.75
2023-03-06T10:46:39.216Z,96979.09
2023-03-06T10:49:14.750Z,96985.53
2023-03-06T10:51:43.689Z,96990.16
2023-03-06T10:54:13.129Z,96993.06
2023-03-06T10:56:44.680Z,96986.03
2023-03-06T10:59:25.240Z,96991.63
2023-03-06T11:01:53.797Z,96994.97
2023-03-06T11:04:38.628Z,96991.25
2023-03-06T11:07:17.075Z,96985.31
2023-03-06T11:09:58.876Z,96986.50
2023-03-06T11:12:38.685Z,96993.38
2023-03-06T11:15:14.174Z,96991.59
2023-03-06T11:18:00.656Z,96991.13
2023-03-06T11:20:41.216Z,96995.63
2023-03-06T11:23:19.138Z,97006.22
2023-03-06T11:25:51.917Z,97005.91
2023-03-06T11:28:31.697Z,96990.84
2023-03-06T11:31:02.384Z,96995.28
2023-03-06T11:33:34.556Z,96991.81
2023-03-06T11:36:04.609Z,96983.75
2023-03-06T11:38:50.326Z,96986.34
2023-03-06T11:41:19.762Z,96982.44
2023-03-06T11:43:59.183Z,96979.38
2023-03-06T11:46:31.270Z,96972.06
2023-03-06T11:49:31.736Z,96966.25
2023-03-06T11:52:00.397Z,96959.66
2023-03-06T11:54:26.901Z,96959.97
2023-03-06T11:56:58.636Z,96954.59
2023-03-06T11:59:46.989Z,96948.03
2023-03-06T12:02:29.412Z,96948.84
2023-03-06T12:05:12.242Z,96954.56
2023-03-06T12:07:49.461Z,96953.06
2023-03-06T12:10:30.844Z,96947.16
2023-03-06T12:13:09.773Z,96944.47
2023-03-06T12:15:54.946Z,96942.22
2023-03-06T12:18:31.769Z,96940.00
2023-03-06T12:21:31.104Z,96933.88
2023-03-06T12:24:19.799Z,96937.03
2023-03-06T12:27:08.278Z,96938.81
2023-03-06T12:29:53.038Z,96931.72
2023-03-06T12:32:23.484Z,96933.47
2023-03-06T12:35:17.478Z,96930.78
2023-03-06T12:38:34.476Z,96928.66
2023-03-06T12:41:51.849Z,96930.38
2023-03-06T12:44:55.442Z,96938.34
2023-03-06T12:47:21.933Z,96935.59
2023-03-06T12:49:57.602Z,96932.56
2023-03-06T12:52:30.697Z,96933.44
2023-03-06T12:54:58.531Z,96930.88
2023-03-06T12:57:25.488Z,96931.84
2023-03-06T12:59:52.541Z,96932.44
2023-03-06T13:02:40.710Z,96924.91
2023-03-06T13:05:25.666Z,96922.09
2023-03-06T13:08:17.313Z,96929.19
2023-03-06T13:10:44.059Z,96926.88
2023-03-06T13:13:30.846Z,96926.53
2023-03-06T13:16:15.880Z,96931.38
2023-03-06T13:18:42.214Z,96932.19
2023-03-06T13:21:47.277Z,96934.41
2023-03-06T13:24:25.424Z,96944.34
2023-03-06T13:27:00.959Z,96936.66
2023-03-06T13:29:36.482Z,96938.53
2023-03-06T13:32:02.941Z,96936.22
2023-03-06T13:34:49.066Z,96940.41
2023-03-06T13:37:18.547Z,96930.59
2023-03-06T13:40:00.332Z,96928.88
2023-03-06T13:42:37.076Z,96927.84
2023-03-06T13:45:25.217Z,96927.03
2023-03-06T13:48:33.661Z,96915.72
2023-03-06T13:50:42.516Z,96916.13
2023-03-06T13:53:32.058Z,96924.22
2023-03-06T13:56:16.173Z,96914.00
2023-03-06T13:58:52.942Z,96912.16
2023-03-06T14:01:50.321Z,96889.50
2023-03-06T14:04:30.616Z,96897.06
2023-03-06T14:07:02.950Z,96892.72
2023-03-06T14:09:35.892Z,96886.22
2023-03-06T14:12:26.681Z,96883.81
2023-03-06T14:14:58.004Z,96873.16
2023-03-06T14:17:35.095Z,96877.06
2023-03-06T14:20:16.775Z,96895.94
2023-03-06T14:22:43.252Z,96884.81
2023-03-06T14:25:17.887Z,96872.47
2023-03-06T14:27:49.356Z,96887.22
2023-03-06T14:30:25.372Z,96881.88
2023-03-06T14:32:53.880Z,96869.63
2023-03-06T14:35:28.757Z,96850.34
2023-03-06T14:38:03.788Z,96852.13
2023-03-06T14:40:40.822Z,96840.41
2023-03-06T14:43:11.203Z,96832.06
2023-03-06T14:45:38.697Z,96833.53
2023-03-06T14:48:05.934Z,96836.84
2023-03-06T14:50:35.555Z,96848.66
2023-03-06T14:53:19.175Z,96854.41
2023-03-06T14:55:50.126Z,96885.31
2023-03-06T14:58:19.793Z,96884.25
2023-03-06T15:00:49.651Z,96862.66
2023-03-06T15:03:25.873Z,96864.25
2023-03-06T15:05:52.387Z,96863.84
2023-03-06T15:08:24.984Z,96866.25
2023-03-06T15:11:09.684Z,96863.09
2023-03-06T15:13:36.167Z,96861.84
2023-03-06T15:16:14.880Z,96866.28
2023-03-06T15:19:00.707Z,96858.84
2023-03-06T15:21:28.613Z,96868.94
2023-03-06T15:23:56.243Z,96862.31
2023-03-06T15:26:33.262Z,96868.13
2023-03-06T15:29:10.062Z,96863.34
2023-03-06T15:31:41.154Z,96864.16
2023-03-06T15:34:07.746Z,96860.38
2023-03-06T15:36:35.469Z,96858.88
2023-03-06T15:39:01.987Z,96853.50
2023-03-06T15:41:29.671Z,96861.03
2023-03-06T15:43:57.501Z,96867.53
2023-03-06T15:46:23.955Z,96862.53
2023-03-06T15:48:54.713Z,96866.66
2023-03-06T15:51:21.242Z,96872.41
2023-03-06T15:53:47.956Z,96863.72
2023-03-06T15:56:14.514Z,96862.03
2023-03-06T15:58:41.095Z,96857.81
2023-03-06T16:01:08.131Z,96863.28
2023-03-06T16:03:34.696Z,96866.91
2023-03-06T16:06:01.193Z,96860.84
2023-03-06T16:08:28.834Z,96860.16
2023-03-06T16:10:55.380Z,96846.38
2023-03-06T16:13:27.344Z,96854.56
2023-03-06T16:15:54.378Z,96852.38
2023-03-06T16:18:20.852Z,96858.28
2023-03-06T16:20:47.326Z,96849.84
2023-03-06T16:23:15.287Z,96850.00
2023-03-06T16:25:42.996Z,96845.88
2023-03-06T16:28:14.263Z,96840.63
2023-03-06T16:30:41.849Z,96854.53
2023-03-06T16:33:10.491Z,96853.66
2023-03-06T16:35:37.004Z,96849.66
2023-03-06T16:38:03.545Z,96847.25
2023-03-06T16:40:32.492Z,96843.72
2023-03-06T16:42:59.261Z,96838.44
2023-03-06T16:45:25.751Z,96845.31
2023-03-06T16:47:52.254Z,96845.66
2023-03-06T16:50:29.498Z,96843.38
2023-03-06T16:52:56.209Z,96845.19
2023-03-06T16:55:23.377Z,96844.72
2023-03-06T16:57:49.907Z,96843.66
2023-03-06T17:00:17.097Z,96841.41
2023-03-06T17:02:43.617Z,96834.97
2023-03-06T17:05:10.739Z,96839.63
2023-03-06T17:07:37.453Z,96842.31
2023-03-06T17:10:09.278Z,96836.16
2023-03-06T17:12:35.961Z,96831.47
2023-03-06T17:15:02.877Z,96830.69
2023-03-06T17:17:29.336Z,96832.44
2023-03-06T17:19:55.797Z,96829.00
2023-03-06T17:22:22.269Z,96835.34
2023-03-06T17:24:49.933Z,96835.44
2023-03-06T17:27:19.019Z,96838.94
2023-03-06T17:29:49.221Z,96837.16
2023-03-06T17:32:18.780Z,96836.34
2023-03-06T17:34:48.372Z,96823.19
2023-03-06T17:37:15.159Z,96831.81
2023-03-06T17:39:41.625Z,96830.22
2023-03-06T17:42:09.002Z,96834.06
2023-03-06T17:44:35.735Z,96829.28
2023-03-06T17:47:02.466Z,96834.16
2023-03-06T17:49:28.957Z,96827.75
2023-03-06T17:51:56.489Z,96830.81
2023-03-06T17:54:23.036Z,96829.19
2023-03-06T17:56:49.522Z,96825.03
2023-03-06T17:59:16.004Z,96825.50
2023-03-06T18:01:43.657Z,96823.88
2023-03-06T18:04:10.302Z,96826.78
2023-03-06T18:06:37.061Z,96828.25
2023-03-06T18:09:03.801Z,96820.69
2023-03-06T18:11:30.525Z,96817.84
2023-03-06T18:13:57.047Z,96811.06
2023-03-06T18:16:24.746Z,96810.75
2023-03-06T18:18:52.349Z,96811.41
2023-03-06T18:21:18.936Z,96796.97
2023-03-06T18:23:45.438Z,96802.75
2023-03-06T18:26:39.097Z,96799.38
2023-03-06T18:29:05.830Z,96794.25
2023-03-06T18:31:42.094Z,96801.47
2023-03-06T18:34:13.337Z,96798.59
2023-03-06T18:36:40.246Z,96785.59
2023-03-06T18:39:08.458Z,96802.28
2023-03-06T18:41:35.050Z,96788.31
2023-03-06T18:44:01.601Z,96791.38
2023-03-06T18:46:32.862Z,96793.13
2023-03-06T18:48:59.695Z,96781.09
2023-03-06T18:51:26.599Z,96787.50
2023-03-06T18:53:53.111Z,96779.97
2023-03-06T18:56:20.796Z,96775.47
2023-03-06T18:58:47.312Z,96778.03
2023-03-06T19:01:13.874Z,96773.88
2023-03-06T19:03:40.999Z,96770.50
2023-03-06T19:06:09.088Z,96771.47
2023-03-06T19:08:36.263Z,96772.44
2023-03-06T19:11:03.941Z,96766.50
2023-03-06T19:13:30.554Z,96767.00
2023-03-06T19:15:57.090Z,96765.84
2023-03-06T19:18:24.071Z,96764.56
2023-03-06T19:20:50.526Z,96770.69
2023-03-06T19:23:17.017Z,96765.22
2023-03-06T19:25:43.480Z,96763.28
2023-03-06T19:28:09.976Z,96763.28
2023-03-06T19:30:40.034Z,96760.41
2023-03-06T19:33:06.520Z,96755.44
2023-03-06T19:35:33.017Z,96750.31
2023-03-06T19:37:59.506Z,96750.78
2023-03-06T19:40:25.968Z,96741.63
2023-03-06T19:42:52.466Z,96748.19
2023-03-06T19:45:18.935Z,96747.06
2023-03-06T19:47:48.008Z,96734.88
2023-03-06T19:50:14.482Z,96736.97
2023-03-06T19:52:40.992Z,96733.59
2023-03-06T19:55:08.662Z,96734.09
2023-03-06T19:57:35.175Z,96734.69
2023-03-06T20:00:01.920Z,96733.09
2023-03-06T20:02:28.679Z,96723.41
2023-03-06T20:04:55.210Z,96726.41
2023-03-06T20:07:21.906Z,96718.84
2023-03-06T20:09:48.488Z,96712.19
2023-03-06T20:12:15.342Z,96713.94
2023-03-06T20:14:42.070Z,96722.25
2023-03-06T20:17:08.612Z,96712.34
2023-03-06T20:19:35.333Z,96707.19
2023-03-06T20:22:01.827Z,96706.06
2023-03-06T20:24:28.291Z,96692.66
2023-03-06T20:26:57.483Z,96695.41
2023-03-06T20:29:25.498Z,96700.91
2023-03-06T20:31:54.543Z,96689.13
2023-03-06T20:34:21.459Z,96694.94
2023-03-06T20:36:47.977Z,96689.13
2023-03-06T20:39:16.170Z,96680.28
2023-03-06T20:41:42.686Z,96676.25
2023-03-06T20:44:13.362Z,96678.16
2023-03-06T20:46:40.055Z,96671.09
2023-03-06T20:49:07.527Z,96671.56
2023-03-06T20:51:37.471Z,96672.38
2023-03-06T20:54:04.049Z,96679.47
2023-03-06T20:56:33.736Z,96670.50
2023-03-06T20:59:00.279Z,96663.72
2023-03-06T21:01:28.385Z,96666.63
2023-03-06T21:03:56.692Z,96660.22
2023-03-06T21:06:23.304Z,96654.28
2023-03-06T21:08:49.869Z,96653.16
2023-03-06T21:11:16.699Z,96642.03
2023-03-06T21:13:43.184Z,96638.78
2023-03-06T21:16:11.182Z,96640.41
2023-03-06T21:18:38.043Z,96633.84
2023-03-06T21:21:12.577Z,96630.47
2023-03-06T21:23:39.109Z,96622.63
2023-03-06T21:26:05.782Z,96630.16
2023-03-06T21:28:32.291Z,96620.72
2023-03-06T21:31:01.971Z,96612.31
2023-03-06T21:33:28.670Z,96611.59
2023-03-06T21:35:55.394Z,96611.59
2023-03-06T21:38:21.906Z,96601.22
2023-03-06T21:40:48.364Z,96604.00
2023-03-06T21:43:17.338Z,96595.00
2023-03-06T21:45:46.802Z,96587.28
2023-03-06T21:48:14.437Z,96589.22
2023-03-06T21:50:41.362Z,96584.53
2023-03-06T21:53:08.591Z,96582.94
2023-03-06T21:55:38.656Z,96580.03
2023-03-06T21:58:05.108Z,96568.44
2023-03-06T22:00:35.980Z,96560.00
2023-03-06T22:03:06.565Z,96557.16
2023-03-06T22:05:33.035Z,96543.28
2023-03-06T22:07:59.498Z,96553.63
2023-03-06T22:10:25.965Z,96538.69
2023-03-06T22:12:52.473Z,96531.53
2023-03-06T22:15:20.365Z,96530.53
2023-03-06T22:17:48.433Z,96517.22
2023-03-06T22:20:15.389Z,96523.13
2023-03-06T22:22:42.278Z,96512.53
2023-03-06T22:25:09.174Z,96510.47
2023-03-06T22:27:35.925Z,96503.53
2023-03-06T22:30:02.446Z,96504.00
2023-03-06T22:32:29.033Z,96496.41
2023-03-06T22:34:55.525Z,96499.47
2023-03-06T22:37:22.026Z,96490.00
2023-03-06T22:39:48.501Z,96477.16
2023-03-06T22:42:14.971Z,96477.81
2023-03-06T22:44:41.452Z,96485.94
2023-03-06T22:47:08.193Z,96472.81
2023-03-06T22:49:34.665Z,96470.53
2023-03-06T22:52:01.124Z,96464.63
2023-03-06T22:54:27.601Z,96468.00
2023-03-06T22:56:54.055Z,96452.06
2023-03-06T22:59:20.527Z,96453.66
2023-03-06T23:01:46.999Z,96455.66
2023-03-06T23:04:13.504Z,96449.66
2023-03-06T23:06:41.440Z,96450.88
2023-03-06T23:09:20.685Z,96450.88
2023-03-06T23:11:50.036Z,96440.66
2023-03-06T23:14:17.071Z,96432.38
2023-03-06T23:16:43.605Z,96424.47
2023-03-06T23:19:10.346Z,96426.59
2023-03-06T23:21:37.100Z,96423.84
2023-03-06T23:24:03.716Z,96418.94
2023-03-06T23:26:30.768Z,96411.78
2023-03-06T23:28:57.635Z,96416.16
2023-03-06T23:31:28.347Z,96403.66
2023-03-06T23:34:01.265Z,96431.84
2023-03-06T23:36:28.188Z,96424.31
2023-03-06T23:38:54.727Z,96429.53
2023-03-06T23:41:21.351Z,96410.66
2023-03-06T23:43:48.087Z,96408.41
2023-03-06T23:46:14.612Z,96408.88
2023-03-06T23:48:41.549Z,96400.88
2023-03-06T23:51:16.186Z,96397.22
2023-03-06T23:53:46.684Z,96396.75
2023-03-06T23:56:13.263Z,96383.22
2023-03-06T23:58:39.913Z,96394.34
